sensor_id;sensor_type;location;lat;lon;timestamp;P1;durP1;ratioP1;P2;durP2;ratioP2
20725;SDS011;10524;48.132;8.518;2023-09-07T00:00:36;9.90;;;8.35;;
20725;SDS011;10524;48.132;8.518;2023-09-07T00:03:02;10.18;;;8.88;;
20725;SDS011;10524;48.132;8.518;2023-09-07T00:05:29;11.00;;;8.63;;
20725;SDS011;10524;48.132;8.518;2023-09-07T00:07:55;10.02;;;7.80;;
20725;SDS011;10524;48.132;8.518;2023-09-07T00:10:21;11.70;;;9.38;;
20725;SDS011;10524;48.132;8.518;2023-09-07T00:12:47;10.32;;;9.15;;
20725;SDS011;10524;48.132;8.518;2023-09-07T00:15:12;11.60;;;8.82;;
20725;SDS011;10524;48.132;8.518;2023-09-07T00:17:38;11.30;;;9.32;;
20725;SDS011;10524;48.132;8.518;2023-09-07T00:20:04;11.95;;;8.90;;
20725;SDS011;10524;48.132;8.518;2023-09-07T00:22:36;11.85;;;9.15;;
20725;SDS011;10524;48.132;8.518;2023-09-07T00:25:03;10.98;;;8.95;;
20725;SDS011;10524;48.132;8.518;2023-09-07T00:27:29;11.50;;;9.25;;
20725;SDS011;10524;48.132;8.518;2023-09-07T00:29:55;10.98;;;9.70;;
20725;SDS011;10524;48.132;8.518;2023-09-07T00:32:21;12.38;;;9.95;;
20725;SDS011;10524;48.132;8.518;2023-09-07T00:34:47;13.43;;;9.73;;
20725;SDS011;10524;48.132;8.518;2023-09-07T00:37:12;14.68;;;10.85;;
20725;SDS011;10524;48.132;8.518;2023-09-07T00:39:38;11.55;;;9.60;;
20725;SDS011;10524;48.132;8.518;2023-09-07T00:42:04;11.95;;;9.55;;
20725;SDS011;10524;48.132;8.518;2023-09-07T00:44:30;12.18;;;9.52;;
20725;SDS011;10524;48.132;8.518;2023-09-07T00:46:58;12.07;;;9.65;;
20725;SDS011;10524;48.132;8.518;2023-09-07T00:49:24;11.30;;;9.23;;
20725;SDS011;10524;48.132;8.518;2023-09-07T00:51:51;11.80;;;9.23;;
20725;SDS011;10524;48.132;8.518;2023-09-07T00:54:17;12.02;;;9.52;;
20725;SDS011;10524;48.132;8.518;2023-09-07T00:56:43;15.27;;;9.25;;
20725;SDS011;10524;48.132;8.518;2023-09-07T00:59:09;9.93;;;8.70;;
20725;SDS011;10524;48.132;8.518;2023-09-07T01:01:37;10.02;;;8.45;;
20725;SDS011;10524;48.132;8.518;2023-09-07T01:04:02;11.13;;;9.20;;
20725;SDS011;10524;48.132;8.518;2023-09-07T01:07:31;16.63;;;10.35;;
20725;SDS011;10524;48.132;8.518;2023-09-07T01:09:36;11.65;;;9.50;;
20725;SDS011;10524;48.132;8.518;2023-09-07T01:12:04;13.27;;;10.30;;
20725;SDS011;10524;48.132;8.518;2023-09-07T01:14:32;12.45;;;10.20;;
20725;SDS011;10524;48.132;8.518;2023-09-07T01:16:58;13.38;;;10.65;;
20725;SDS011;10524;48.132;8.518;2023-09-07T01:19:25;10.68;;;9.57;;
20725;SDS011;10524;48.132;8.518;2023-09-07T01:21:50;15.63;;;10.50;;
20725;SDS011;10524;48.132;8.518;2023-09-07T01:24:17;13.05;;;9.32;;
20725;SDS011;10524;48.132;8.518;2023-09-07T01:26:43;10.82;;;9.43;;
20725;SDS011;10524;48.132;8.518;2023-09-07T01:29:15;11.80;;;9.65;;
20725;SDS011;10524;48.132;8.518;2023-09-07T01:31:43;12.52;;;9.90;;
20725;SDS011;10524;48.132;8.518;2023-09-07T01:34:09;12.43;;;10.23;;
20725;SDS011;10524;48.132;8.518;2023-09-07T01:36:35;11.93;;;10.25;;
20725;SDS011;10524;48.132;8.518;2023-09-07T01:39:04;11.07;;;9.60;;
20725;SDS011;10524;48.132;8.518;2023-09-07T01:41:31;13.25;;;9.63;;
20725;SDS011;10524;48.132;8.518;2023-09-07T01:43:59;12.45;;;10.48;;
20725;SDS011;10524;48.132;8.518;2023-09-07T01:46:24;10.73;;;9.13;;
20725;SDS011;10524;48.132;8.518;2023-09-07T01:48:50;11.00;;;9.32;;
20725;SDS011;10524;48.132;8.518;2023-09-07T01:51:16;12.63;;;8.60;;
20725;SDS011;10524;48.132;8.518;2023-09-07T01:53:42;11.35;;;9.23;;
20725;SDS011;10524;48.132;8.518;2023-09-07T01:56:09;14.55;;;9.88;;
20725;SDS011;10524;48.132;8.518;2023-09-07T01:58:34;11.80;;;9.82;;
20725;SDS011;10524;48.132;8.518;2023-09-07T02:01:02;12.88;;;9.60;;
20725;SDS011;10524;48.132;8.518;2023-09-07T02:03:27;11.30;;;9.25;;
20725;SDS011;10524;48.132;8.518;2023-09-07T02:05:54;12.38;;;8.88;;
20725;SDS011;10524;48.132;8.518;2023-09-07T02:08:20;11.20;;;9.25;;
20725;SDS011;10524;48.132;8.518;2023-09-07T02:10:46;11.85;;;9.60;;
20725;SDS011;10524;48.132;8.518;2023-09-07T02:13:12;11.77;;;9.95;;
20725;SDS011;10524;48.132;8.518;2023-09-07T02:15:38;12.77;;;10.32;;
20725;SDS011;10524;48.132;8.518;2023-09-07T02:18:05;13.52;;;10.30;;
20725;SDS011;10524;48.132;8.518;2023-09-07T02:20:31;14.82;;;9.93;;
20725;SDS011;10524;48.132;8.518;2023-09-07T02:22:58;12.60;;;9.68;;
20725;SDS011;10524;48.132;8.518;2023-09-07T02:25:24;11.90;;;9.93;;
20725;SDS011;10524;48.132;8.518;2023-09-07T02:27:50;14.38;;;9.60;;
20725;SDS011;10524;48.132;8.518;2023-09-07T02:30:15;12.65;;;10.23;;
20725;SDS011;10524;48.132;8.518;2023-09-07T02:32:42;13.98;;;10.50;;
20725;SDS011;10524;48.132;8.518;2023-09-07T02:35:08;15.00;;;11.30;;
20725;SDS011;10524;48.132;8.518;2023-09-07T02:37:36;13.07;;;11.15;;
20725;SDS011;10524;48.132;8.518;2023-09-07T02:40:02;14.65;;;11.75;;
20725;SDS011;10524;48.132;8.518;2023-09-07T02:45:00;12.60;;;9.60;;
20725;SDS011;10524;48.132;8.518;2023-09-07T02:47:27;12.55;;;9.45;;
20725;SDS011;10524;48.132;8.518;2023-09-07T02:49:52;11.88;;;9.38;;
20725;SDS011;10524;48.132;8.518;2023-09-07T02:52:18;11.93;;;9.68;;
20725;SDS011;10524;48.132;8.518;2023-09-07T02:54:44;12.23;;;9.43;;
20725;SDS011;10524;48.132;8.518;2023-09-07T02:57:11;11.27;;;9.43;;
20725;SDS011;10524;48.132;8.518;2023-09-07T02:59:37;15.05;;;10.98;;
20725;SDS011;10524;48.132;8.518;2023-09-07T03:02:03;14.98;;;10.65;;
20725;SDS011;10524;48.132;8.518;2023-09-07T03:04:29;12.90;;;10.00;;
20725;SDS011;10524;48.132;8.518;2023-09-07T03:06:55;11.50;;;9.73;;
20725;SDS011;10524;48.132;8.518;2023-09-07T03:09:21;11.27;;;9.90;;
20725;SDS011;10524;48.132;8.518;2023-09-07T03:11:47;13.57;;;10.02;;
20725;SDS011;10524;48.132;8.518;2023-09-07T03:14:13;12.52;;;10.05;;
20725;SDS011;10524;48.132;8.518;2023-09-07T03:16:39;11.77;;;10.13;;
20725;SDS011;10524;48.132;8.518;2023-09-07T03:19:06;11.55;;;10.25;;
20725;SDS011;10524;48.132;8.518;2023-09-07T03:21:32;17.55;;;10.10;;
20725;SDS011;10524;48.132;8.518;2023-09-07T03:23:58;15.45;;;9.93;;
20725;SDS011;10524;48.132;8.518;2023-09-07T03:26:25;15.07;;;12.27;;
20725;SDS011;10524;48.132;8.518;2023-09-07T03:28:52;14.52;;;10.48;;
20725;SDS011;10524;48.132;8.518;2023-09-07T03:31:19;13.18;;;11.20;;
20725;SDS011;10524;48.132;8.518;2023-09-07T03:33:45;14.02;;;10.57;;
20725;SDS011;10524;48.132;8.518;2023-09-07T03:36:11;12.55;;;10.45;;
20725;SDS011;10524;48.132;8.518;2023-09-07T03:38:40;11.95;;;10.23;;
20725;SDS011;10524;48.132;8.518;2023-09-07T03:41:07;11.70;;;9.07;;
20725;SDS011;10524;48.132;8.518;2023-09-07T03:43:33;13.40;;;9.88;;
20725;SDS011;10524;48.132;8.518;2023-09-07T03:45:58;15.40;;;9.70;;
20725;SDS011;10524;48.132;8.518;2023-09-07T03:48:24;13.45;;;10.90;;
20725;SDS011;10524;48.132;8.518;2023-09-07T03:50:50;12.57;;;9.35;;
20725;SDS011;10524;48.132;8.518;2023-09-07T03:53:16;12.60;;;9.60;;
20725;SDS011;10524;48.132;8.518;2023-09-07T03:55:43;13.23;;;10.02;;
20725;SDS011;10524;48.132;8.518;2023-09-07T03:58:12;12.75;;;10.40;;
20725;SDS011;10524;48.132;8.518;2023-09-07T04:00:39;11.23;;;9.50;;
20725;SDS011;10524;48.132;8.518;2023-09-07T04:03:08;13.75;;;9.70;;
20725;SDS011;10524;48.132;8.518;2023-09-07T04:05:36;11.02;;;9.60;;
20725;SDS011;10524;48.132;8.518;2023-09-07T04:08:03;12.82;;;10.10;;
20725;SDS011;10524;48.132;8.518;2023-09-07T04:10:30;13.70;;;10.45;;
20725;SDS011;10524;48.132;8.518;2023-09-07T04:12:56;12.27;;;10.27;;
20725;SDS011;10524;48.132;8.518;2023-09-07T04:15:22;14.10;;;10.52;;
20725;SDS011;10524;48.132;8.518;2023-09-07T04:17:49;12.68;;;10.15;;
20725;SDS011;10524;48.132;8.518;2023-09-07T04:20:15;11.63;;;9.45;;
20725;SDS011;10524;48.132;8.518;2023-09-07T04:22:42;12.38;;;9.65;;
20725;SDS011;10524;48.132;8.518;2023-09-07T04:25:08;11.50;;;9.50;;
20725;SDS011;10524;48.132;8.518;2023-09-07T04:27:34;12.10;;;9.90;;
20725;SDS011;10524;48.132;8.518;2023-09-07T04:30:00;13.40;;;10.15;;
20725;SDS011;10524;48.132;8.518;2023-09-07T04:32:26;12.90;;;10.98;;
20725;SDS011;10524;48.132;8.518;2023-09-07T04:34:56;11.85;;;9.75;;
20725;SDS011;10524;48.132;8.518;2023-09-07T04:37:22;13.15;;;9.70;;
20725;SDS011;10524;48.132;8.518;2023-09-07T04:39:52;11.80;;;10.00;;
20725;SDS011;10524;48.132;8.518;2023-09-07T04:42:19;11.83;;;10.37;;
20725;SDS011;10524;48.132;8.518;2023-09-07T04:44:49;15.13;;;10.45;;
20725;SDS011;10524;48.132;8.518;2023-09-07T04:47:14;14.00;;;9.48;;
20725;SDS011;10524;48.132;8.518;2023-09-07T04:49:42;10.85;;;9.45;;
20725;SDS011;10524;48.132;8.518;2023-09-07T04:52:08;13.00;;;9.30;;
20725;SDS011;10524;48.132;8.518;2023-09-07T04:54:34;11.23;;;8.75;;
20725;SDS011;10524;48.132;8.518;2023-09-07T04:57:00;12.40;;;9.40;;
20725;SDS011;10524;48.132;8.518;2023-09-07T04:59:26;12.15;;;9.40;;
20725;SDS011;10524;48.132;8.518;2023-09-07T05:01:52;10.38;;;8.52;;
20725;SDS011;10524;48.132;8.518;2023-09-07T05:04:17;9.95;;;8.35;;
20725;SDS011;10524;48.132;8.518;2023-09-07T05:06:43;11.90;;;9.48;;
20725;SDS011;10524;48.132;8.518;2023-09-07T05:09:09;11.63;;;9.15;;
20725;SDS011;10524;48.132;8.518;2023-09-07T05:11:35;10.57;;;8.77;;
20725;SDS011;10524;48.132;8.518;2023-09-07T05:14:01;9.82;;;8.82;;
20725;SDS011;10524;48.132;8.518;2023-09-07T05:16:28;9.38;;;7.70;;
20725;SDS011;10524;48.132;8.518;2023-09-07T05:18:54;7.95;;;7.13;;
20725;SDS011;10524;48.132;8.518;2023-09-07T05:21:20;7.78;;;6.97;;
20725;SDS011;10524;48.132;8.518;2023-09-07T05:23:46;9.02;;;7.18;;
20725;SDS011;10524;48.132;8.518;2023-09-07T05:26:12;6.85;;;6.15;;
20725;SDS011;10524;48.132;8.518;2023-09-07T05:28:39;7.28;;;6.57;;
20725;SDS011;10524;48.132;8.518;2023-09-07T05:31:09;6.85;;;6.15;;
20725;SDS011;10524;48.132;8.518;2023-09-07T05:33:36;7.13;;;5.68;;
20725;SDS011;10524;48.132;8.518;2023-09-07T05:36:01;6.85;;;5.53;;
20725;SDS011;10524;48.132;8.518;2023-09-07T05:38:28;6.05;;;4.70;;
20725;SDS011;10524;48.132;8.518;2023-09-07T05:40:54;5.75;;;5.00;;
20725;SDS011;10524;48.132;8.518;2023-09-07T05:43:21;5.70;;;4.40;;
20725;SDS011;10524;48.132;8.518;2023-09-07T05:45:47;5.30;;;4.80;;
20725;SDS011;10524;48.132;8.518;2023-09-07T05:48:13;5.07;;;4.00;;
20725;SDS011;10524;48.132;8.518;2023-09-07T05:50:42;5.53;;;4.18;;
20725;SDS011;10524;48.132;8.518;2023-09-07T05:53:09;4.13;;;3.72;;
20725;SDS011;10524;48.132;8.518;2023-09-07T05:55:35;4.25;;;3.70;;
20725;SDS011;10524;48.132;8.518;2023-09-07T05:58:06;5.57;;;3.40;;
20725;SDS011;10524;48.132;8.518;2023-09-07T06:00:35;3.70;;;3.30;;
20725;SDS011;10524;48.132;8.518;2023-09-07T06:03:04;3.92;;;3.35;;
20725;SDS011;10524;48.132;8.518;2023-09-07T06:05:34;4.45;;;3.47;;
20725;SDS011;10524;48.132;8.518;2023-09-07T06:08:02;6.15;;;3.75;;
20725;SDS011;10524;48.132;8.518;2023-09-07T06:10:28;6.75;;;3.50;;
20725;SDS011;10524;48.132;8.518;2023-09-07T06:12:56;5.28;;;3.67;;
20725;SDS011;10524;48.132;8.518;2023-09-07T06:15:22;3.50;;;3.20;;
20725;SDS011;10524;48.132;8.518;2023-09-07T06:17:47;3.33;;;3.00;;
20725;SDS011;10524;48.132;8.518;2023-09-07T06:20:15;3.20;;;2.90;;
20725;SDS011;10524;48.132;8.518;2023-09-07T06:22:42;4.70;;;3.72;;
20725;SDS011;10524;48.132;8.518;2023-09-07T06:25:10;5.82;;;4.55;;
20725;SDS011;10524;48.132;8.518;2023-09-07T06:27:36;7.07;;;4.10;;
20725;SDS011;10524;48.132;8.518;2023-09-07T06:30:02;3.42;;;3.00;;
20725;SDS011;10524;48.132;8.518;2023-09-07T06:32:29;4.22;;;3.00;;
20725;SDS011;10524;48.132;8.518;2023-09-07T06:34:55;3.78;;;3.30;;
20725;SDS011;10524;48.132;8.518;2023-09-07T06:37:20;4.68;;;2.80;;
20725;SDS011;10524;48.132;8.518;2023-09-07T06:39:46;4.30;;;3.38;;
20725;SDS011;10524;48.132;8.518;2023-09-07T06:42:12;4.18;;;2.83;;
20725;SDS011;10524;48.132;8.518;2023-09-07T06:44:45;3.28;;;2.80;;
20725;SDS011;10524;48.132;8.518;2023-09-07T06:47:11;3.42;;;2.60;;
20725;SDS011;10524;48.132;8.518;2023-09-07T06:49:37;3.90;;;2.70;;
20725;SDS011;10524;48.132;8.518;2023-09-07T06:52:04;4.65;;;2.72;;
20725;SDS011;10524;48.132;8.518;2023-09-07T06:54:30;4.03;;;2.60;;
20725;SDS011;10524;48.132;8.518;2023-09-07T06:56:56;3.38;;;2.75;;
20725;SDS011;10524;48.132;8.518;2023-09-07T06:59:22;3.55;;;2.90;;
20725;SDS011;10524;48.132;8.518;2023-09-07T07:01:48;4.38;;;3.13;;
20725;SDS011;10524;48.132;8.518;2023-09-07T07:04:14;3.47;;;2.80;;
20725;SDS011;10524;48.132;8.518;2023-09-07T07:06:40;7.40;;;3.33;;
20725;SDS011;10524;48.132;8.518;2023-09-07T07:09:06;3.83;;;2.67;;
20725;SDS011;10524;48.132;8.518;2023-09-07T07:11:32;6.40;;;3.10;;
20725;SDS011;10524;48.132;8.518;2023-09-07T07:13:58;4.55;;;3.08;;
20725;SDS011;10524;48.132;8.518;2023-09-07T07:16:24;4.10;;;2.80;;
20725;SDS011;10524;48.132;8.518;2023-09-07T07:18:50;2.95;;;2.58;;
20725;SDS011;10524;48.132;8.518;2023-09-07T07:21:16;2.95;;;2.60;;
20725;SDS011;10524;48.132;8.518;2023-09-07T07:23:42;4.63;;;3.33;;
20725;SDS011;10524;48.132;8.518;2023-09-07T07:26:08;5.15;;;2.92;;
20725;SDS011;10524;48.132;8.518;2023-09-07T07:28:34;5.78;;;3.50;;
20725;SDS011;10524;48.132;8.518;2023-09-07T07:31:06;5.47;;;3.30;;
20725;SDS011;10524;48.132;8.518;2023-09-07T07:33:34;6.00;;;2.95;;
20725;SDS011;10524;48.132;8.518;2023-09-07T07:36:01;4.05;;;2.92;;
20725;SDS011;10524;48.132;8.518;2023-09-07T07:38:26;6.88;;;2.80;;
20725;SDS011;10524;48.132;8.518;2023-09-07T07:40:53;4.07;;;2.90;;
20725;SDS011;10524;48.132;8.518;2023-09-07T07:43:18;6.97;;;3.42;;
20725;SDS011;10524;48.132;8.518;2023-09-07T07:45:45;5.68;;;3.42;;
20725;SDS011;10524;48.132;8.518;2023-09-07T07:48:11;7.07;;;3.40;;
20725;SDS011;10524;48.132;8.518;2023-09-07T07:50:40;4.28;;;3.85;;
20725;SDS011;10524;48.132;8.518;2023-09-07T07:53:08;6.30;;;3.60;;
20725;SDS011;10524;48.132;8.518;2023-09-07T07:55:37;5.53;;;3.60;;
20725;SDS011;10524;48.132;8.518;2023-09-07T07:58:06;3.85;;;3.45;;
20725;SDS011;10524;48.132;8.518;2023-09-07T08:00:34;4.70;;;3.40;;
20725;SDS011;10524;48.132;8.518;2023-09-07T08:03:01;3.58;;;3.28;;
20725;SDS011;10524;48.132;8.518;2023-09-07T08:05:29;5.05;;;3.58;;
20725;SDS011;10524;48.132;8.518;2023-09-07T08:07:56;6.10;;;3.70;;
20725;SDS011;10524;48.132;8.518;2023-09-07T08:10:22;6.97;;;3.80;;
20725;SDS011;10524;48.132;8.518;2023-09-07T08:12:48;5.78;;;3.40;;
20725;SDS011;10524;48.132;8.518;2023-09-07T08:15:16;4.50;;;3.75;;
20725;SDS011;10524;48.132;8.518;2023-09-07T08:17:45;4.60;;;3.30;;
20725;SDS011;10524;48.132;8.518;2023-09-07T08:20:11;5.03;;;3.65;;
20725;SDS011;10524;48.132;8.518;2023-09-07T08:22:37;4.00;;;3.60;;
20725;SDS011;10524;48.132;8.518;2023-09-07T08:25:06;4.40;;;4.00;;
20725;SDS011;10524;48.132;8.518;2023-09-07T08:27:33;4.25;;;3.30;;
20725;SDS011;10524;48.132;8.518;2023-09-07T08:29:59;5.07;;;3.83;;
20725;SDS011;10524;48.132;8.518;2023-09-07T08:32:25;6.70;;;4.85;;
20725;SDS011;10524;48.132;8.518;2023-09-07T08:34:50;3.67;;;3.38;;
20725;SDS011;10524;48.132;8.518;2023-09-07T08:37:21;4.20;;;3.60;;
20725;SDS011;10524;48.132;8.518;2023-09-07T08:39:48;5.15;;;3.33;;
20725;SDS011;10524;48.132;8.518;2023-09-07T08:42:13;4.40;;;3.92;;
20725;SDS011;10524;48.132;8.518;2023-09-07T08:44:39;4.00;;;3.20;;
20725;SDS011;10524;48.132;8.518;2023-09-07T08:47:11;4.68;;;3.90;;
20725;SDS011;10524;48.132;8.518;2023-09-07T08:49:39;5.05;;;3.13;;
20725;SDS011;10524;48.132;8.518;2023-09-07T08:52:06;3.72;;;2.92;;
20725;SDS011;10524;48.132;8.518;2023-09-07T08:54:33;3.45;;;3.05;;
20725;SDS011;10524;48.132;8.518;2023-09-07T08:57:02;3.95;;;3.60;;
20725;SDS011;10524;48.132;8.518;2023-09-07T08:59:29;4.90;;;3.85;;
20725;SDS011;10524;48.132;8.518;2023-09-07T09:01:55;5.05;;;3.90;;
20725;SDS011;10524;48.132;8.518;2023-09-07T09:04:23;4.15;;;3.25;;
20725;SDS011;10524;48.132;8.518;2023-09-07T09:06:50;5.63;;;4.25;;
20725;SDS011;10524;48.132;8.518;2023-09-07T09:09:23;5.53;;;3.90;;
20725;SDS011;10524;48.132;8.518;2023-09-07T09:11:50;4.03;;;3.63;;
20725;SDS011;10524;48.132;8.518;2023-09-07T09:14:16;3.40;;;3.10;;
20725;SDS011;10524;48.132;8.518;2023-09-07T09:16:50;4.68;;;3.00;;
20725;SDS011;10524;48.132;8.518;2023-09-07T09:19:16;3.90;;;3.50;;
20725;SDS011;10524;48.132;8.518;2023-09-07T09:21:44;3.80;;;3.40;;
20725;SDS011;10524;48.132;8.518;2023-09-07T09:24:11;3.28;;;2.95;;
20725;SDS011;10524;48.132;8.518;2023-09-07T09:26:37;5.05;;;3.55;;
20725;SDS011;10524;48.132;8.518;2023-09-07T09:29:03;4.63;;;3.53;;
20725;SDS011;10524;48.132;8.518;2023-09-07T09:31:29;3.35;;;3.03;;
20725;SDS011;10524;48.132;8.518;2023-09-07T09:33:55;5.30;;;3.80;;
20725;SDS011;10524;48.132;8.518;2023-09-07T09:36:21;3.72;;;3.35;;
20725;SDS011;10524;48.132;8.518;2023-09-07T09:38:48;5.57;;;3.67;;
20725;SDS011;10524;48.132;8.518;2023-09-07T09:41:15;3.85;;;3.55;;
20725;SDS011;10524;48.132;8.518;2023-09-07T09:43:43;3.50;;;3.20;;
20725;SDS011;10524;48.132;8.518;2023-09-07T09:46:11;5.95;;;3.45;;
20725;SDS011;10524;48.132;8.518;2023-09-07T09:48:38;4.88;;;3.50;;
20725;SDS011;10524;48.132;8.518;2023-09-07T09:51:05;5.22;;;3.70;;
20725;SDS011;10524;48.132;8.518;2023-09-07T09:53:33;3.75;;;2.92;;
20725;SDS011;10524;48.132;8.518;2023-09-07T09:55:59;7.45;;;3.67;;
20725;SDS011;10524;48.132;8.518;2023-09-07T09:58:25;5.30;;;3.35;;
20725;SDS011;10524;48.132;8.518;2023-09-07T10:00:53;3.47;;;3.17;;
20725;SDS011;10524;48.132;8.518;2023-09-07T10:03:37;6.50;;;3.50;;
20725;SDS011;10524;48.132;8.518;2023-09-07T10:06:20;4.72;;;3.58;;
20725;SDS011;10524;48.132;8.518;2023-09-07T10:08:52;4.45;;;3.53;;
20725;SDS011;10524;48.132;8.518;2023-09-07T10:11:30;5.63;;;3.80;;
20725;SDS011;10524;48.132;8.518;2023-09-07T10:14:02;4.20;;;3.45;;
20725;SDS011;10524;48.132;8.518;2023-09-07T10:16:29;4.70;;;3.28;;
20725;SDS011;10524;48.132;8.518;2023-09-07T10:19:20;4.45;;;3.67;;
20725;SDS011;10524;48.132;8.518;2023-09-07T10:21:47;3.42;;;3.13;;
20725;SDS011;10524;48.132;8.518;2023-09-07T10:24:30;3.10;;;2.78;;
20725;SDS011;10524;48.132;8.518;2023-09-07T10:27:07;2.70;;;2.50;;
20725;SDS011;10524;48.132;8.518;2023-09-07T10:29:43;3.38;;;2.67;;
20725;SDS011;10524;48.132;8.518;2023-09-07T10:32:09;3.33;;;2.90;;
20725;SDS011;10524;48.132;8.518;2023-09-07T10:34:40;3.38;;;2.80;;
20725;SDS011;10524;48.132;8.518;2023-09-07T10:37:12;3.75;;;2.92;;
20725;SDS011;10524;48.132;8.518;2023-09-07T10:39:39;3.95;;;2.90;;
20725;SDS011;10524;48.132;8.518;2023-09-07T10:42:08;4.22;;;2.83;;
20725;SDS011;10524;48.132;8.518;2023-09-07T10:44:34;3.97;;;2.53;;
20725;SDS011;10524;48.132;8.518;2023-09-07T10:46:59;2.70;;;2.50;;
20725;SDS011;10524;48.132;8.518;2023-09-07T10:49:25;3.85;;;2.70;;
20725;SDS011;10524;48.132;8.518;2023-09-07T10:51:51;3.45;;;2.80;;
20725;SDS011;10524;48.132;8.518;2023-09-07T10:54:18;4.50;;;2.53;;
20725;SDS011;10524;48.132;8.518;2023-09-07T10:56:48;4.25;;;2.92;;
20725;SDS011;10524;48.132;8.518;2023-09-07T10:59:15;2.88;;;2.58;;
20725;SDS011;10524;48.132;8.518;2023-09-07T11:01:44;2.75;;;2.45;;
20725;SDS011;10524;48.132;8.518;2023-09-07T11:04:11;4.32;;;2.70;;
20725;SDS011;10524;48.132;8.518;2023-09-07T11:06:38;3.30;;;2.90;;
20725;SDS011;10524;48.132;8.518;2023-09-07T11:09:05;4.03;;;3.03;;
20725;SDS011;10524;48.132;8.518;2023-09-07T11:11:35;4.97;;;3.15;;
20725;SDS011;10524;48.132;8.518;2023-09-07T11:14:02;5.80;;;3.00;;
20725;SDS011;10524;48.132;8.518;2023-09-07T11:16:29;4.68;;;3.03;;
20725;SDS011;10524;48.132;8.518;2023-09-07T11:18:55;4.38;;;2.70;;
20725;SDS011;10524;48.132;8.518;2023-09-07T11:21:22;4.47;;;2.65;;
20725;SDS011;10524;48.132;8.518;2023-09-07T11:23:48;4.85;;;2.90;;
20725;SDS011;10524;48.132;8.518;2023-09-07T11:26:15;7.40;;;3.00;;
20725;SDS011;10524;48.132;8.518;2023-09-07T11:28:47;3.30;;;3.00;;
20725;SDS011;10524;48.132;8.518;2023-09-07T11:31:12;5.53;;;2.90;;
20725;SDS011;10524;48.132;8.518;2023-09-07T11:33:38;8.18;;;3.03;;
20725;SDS011;10524;48.132;8.518;2023-09-07T11:36:06;4.22;;;2.75;;
20725;SDS011;10524;48.132;8.518;2023-09-07T11:38:35;4.32;;;2.80;;
20725;SDS011;10524;48.132;8.518;2023-09-07T11:41:02;4.67;;;3.00;;
20725;SDS011;10524;48.132;8.518;2023-09-07T11:43:28;3.15;;;2.80;;
20725;SDS011;10524;48.132;8.518;2023-09-07T11:45:54;6.22;;;2.70;;
20725;SDS011;10524;48.132;8.518;2023-09-07T11:48:20;5.82;;;3.03;;
20725;SDS011;10524;48.132;8.518;2023-09-07T11:50:46;4.72;;;2.90;;
20725;SDS011;10524;48.132;8.518;2023-09-07T11:53:11;4.93;;;3.20;;
20725;SDS011;10524;48.132;8.518;2023-09-07T11:55:37;5.88;;;3.15;;
20725;SDS011;10524;48.132;8.518;2023-09-07T11:58:04;3.65;;;3.10;;
20725;SDS011;10524;48.132;8.518;2023-09-07T12:00:30;4.40;;;3.20;;
20725;SDS011;10524;48.132;8.518;2023-09-07T12:02:57;7.25;;;3.42;;
20725;SDS011;10524;48.132;8.518;2023-09-07T12:05:22;6.75;;;3.53;;
20725;SDS011;10524;48.132;8.518;2023-09-07T12:07:49;4.45;;;3.03;;
20725;SDS011;10524;48.132;8.518;2023-09-07T12:10:15;3.30;;;3.00;;
20725;SDS011;10524;48.132;8.518;2023-09-07T12:12:40;3.72;;;2.83;;
20725;SDS011;10524;48.132;8.518;2023-09-07T12:15:07;4.50;;;3.10;;
20725;SDS011;10524;48.132;8.518;2023-09-07T12:17:33;6.35;;;3.30;;
20725;SDS011;10524;48.132;8.518;2023-09-07T12:19:59;4.07;;;3.10;;
20725;SDS011;10524;48.132;8.518;2023-09-07T12:22:26;4.72;;;2.80;;
20725;SDS011;10524;48.132;8.518;2023-09-07T12:24:52;3.78;;;2.90;;
20725;SDS011;10524;48.132;8.518;2023-09-07T12:27:18;3.38;;;3.08;;
20725;SDS011;10524;48.132;8.518;2023-09-07T12:29:44;4.68;;;2.90;;
20725;SDS011;10524;48.132;8.518;2023-09-07T12:32:10;4.53;;;2.85;;
20725;SDS011;10524;48.132;8.518;2023-09-07T12:34:37;3.10;;;2.60;;
20725;SDS011;10524;48.132;8.518;2023-09-07T12:37:04;3.10;;;2.80;;
20725;SDS011;10524;48.132;8.518;2023-09-07T12:39:31;3.35;;;2.85;;
20725;SDS011;10524;48.132;8.518;2023-09-07T12:41:57;6.68;;;3.00;;
20725;SDS011;10524;48.132;8.518;2023-09-07T12:44:23;6.38;;;3.10;;
20725;SDS011;10524;48.132;8.518;2023-09-07T12:46:49;8.77;;;5.78;;
20725;SDS011;10524;48.132;8.518;2023-09-07T12:49:15;6.85;;;3.10;;
20725;SDS011;10524;48.132;8.518;2023-09-07T12:51:42;6.82;;;3.35;;
20725;SDS011;10524;48.132;8.518;2023-09-07T12:54:08;7.43;;;3.20;;
20725;SDS011;10524;48.132;8.518;2023-09-07T12:56:34;4.38;;;3.47;;
20725;SDS011;10524;48.132;8.518;2023-09-07T12:58:59;5.93;;;3.10;;
20725;SDS011;10524;48.132;8.518;2023-09-07T13:01:25;3.35;;;2.78;;
20725;SDS011;10524;48.132;8.518;2023-09-07T13:03:52;3.65;;;3.22;;
20725;SDS011;10524;48.132;8.518;2023-09-07T13:06:17;4.88;;;3.28;;
20725;SDS011;10524;48.132;8.518;2023-09-07T13:08:44;4.50;;;4.10;;
20725;SDS011;10524;48.132;8.518;2023-09-07T13:11:12;4.10;;;2.70;;
20725;SDS011;10524;48.132;8.518;2023-09-07T13:13:38;3.67;;;3.08;;
20725;SDS011;10524;48.132;8.518;2023-09-07T13:16:04;4.55;;;2.85;;
20725;SDS011;10524;48.132;8.518;2023-09-07T13:18:30;4.35;;;3.20;;
20725;SDS011;10524;48.132;8.518;2023-09-07T13:20:56;5.25;;;3.03;;
20725;SDS011;10524;48.132;8.518;2023-09-07T13:23:29;4.03;;;2.78;;
20725;SDS011;10524;48.132;8.518;2023-09-07T13:25:55;5.03;;;4.05;;
20725;SDS011;10524;48.132;8.518;2023-09-07T13:28:21;3.50;;;2.55;;
20725;SDS011;10524;48.132;8.518;2023-09-07T13:30:48;4.65;;;3.03;;
20725;SDS011;10524;48.132;8.518;2023-09-07T13:33:17;3.42;;;2.70;;
20725;SDS011;10524;48.132;8.518;2023-09-07T13:35:43;5.28;;;2.80;;
20725;SDS011;10524;48.132;8.518;2023-09-07T13:38:10;5.05;;;2.85;;
20725;SDS011;10524;48.132;8.518;2023-09-07T13:40:36;3.72;;;2.70;;
20725;SDS011;10524;48.132;8.518;2023-09-07T13:43:02;2.88;;;2.60;;
20725;SDS011;10524;48.132;8.518;2023-09-07T13:45:28;4.15;;;2.50;;
20725;SDS011;10524;48.132;8.518;2023-09-07T13:47:54;3.88;;;2.38;;
20725;SDS011;10524;48.132;8.518;2023-09-07T13:50:21;6.28;;;2.88;;
20725;SDS011;10524;48.132;8.518;2023-09-07T13:52:47;7.10;;;3.13;;
20725;SDS011;10524;48.132;8.518;2023-09-07T13:55:13;4.05;;;2.72;;
20725;SDS011;10524;48.132;8.518;2023-09-07T13:57:39;7.00;;;2.75;;
20725;SDS011;10524;48.132;8.518;2023-09-07T14:00:05;5.35;;;2.55;;
20725;SDS011;10524;48.132;8.518;2023-09-07T14:02:31;3.85;;;2.40;;
20725;SDS011;10524;48.132;8.518;2023-09-07T14:04:58;4.15;;;2.65;;
20725;SDS011;10524;48.132;8.518;2023-09-07T14:07:24;4.72;;;2.50;;
20725;SDS011;10524;48.132;8.518;2023-09-07T14:09:53;3.15;;;2.67;;
20725;SDS011;10524;48.132;8.518;2023-09-07T14:12:20;2.88;;;2.33;;
20725;SDS011;10524;48.132;8.518;2023-09-07T14:14:48;3.95;;;2.72;;
20725;SDS011;10524;48.132;8.518;2023-09-07T14:17:15;3.53;;;2.75;;
20725;SDS011;10524;48.132;8.518;2023-09-07T14:19:41;3.10;;;2.47;;
20725;SDS011;10524;48.132;8.518;2023-09-07T14:22:06;4.40;;;2.60;;
20725;SDS011;10524;48.132;8.518;2023-09-07T14:24:32;3.92;;;2.65;;
20725;SDS011;10524;48.132;8.518;2023-09-07T14:26:58;4.30;;;3.00;;
20725;SDS011;10524;48.132;8.518;2023-09-07T14:29:23;4.07;;;2.75;;
20725;SDS011;10524;48.132;8.518;2023-09-07T14:31:49;5.18;;;3.03;;
20725;SDS011;10524;48.132;8.518;2023-09-07T14:34:15;5.80;;;3.08;;
20725;SDS011;10524;48.132;8.518;2023-09-07T14:36:41;5.63;;;3.03;;
20725;SDS011;10524;48.132;8.518;2023-09-07T14:39:07;4.45;;;2.90;;
20725;SDS011;10524;48.132;8.518;2023-09-07T14:41:36;4.05;;;3.00;;